Time;durP1;ratioP1;P1;durP2;ratioP2;P2;SDS_P1;SDS_P2;PMS_P1;PMS_P2;Temp;Humidity;BMP_temperature;BMP_pressure;BME280_temperature;BME280_humidity;BME280_pressure;Samples;Min_cycle;Max_cycle;Signal;HPM_P1;HPM_P2
2023/01/15 00:00:44;;;;;;;0.63;0.32;;;;;;;;;;5096159;28;20460;-71
2023/01/15 00:03:10;;;;;;;0.00;0.00;;;;;;;;;;5096329;28;20027;-70
2023/01/15 00:05:35;;;;;;;0.00;0.00;;;;;;;;;;5096663;28;20020;-69
2023/01/15 00:08:01;;;;;;;0.00;0.00;;;;;;;;;;5095606;28;20066;-69
2023/01/15 00:10:27;;;;;;;0.68;0.63;;;;;;;;;;5096943;28;20099;-70
2023/01/15 00:12:52;;;;;;;0.15;0.15;;;;;;;;;;5095995;28;20032;-69
2023/01/15 00:15:18;;;;;;;0.10;0.10;;;;;;;;;;5096631;28;20109;-70
2023/01/15 00:17:43;;;;;;;0.25;0.25;;;;;;;;;;5094518;28;20584;-73
2023/01/15 00:20:09;;;;;;;0.40;0.25;;;;;;;;;;5094929;28;20028;-72
2023/01/15 00:22:34;;;;;;;0.15;0.15;;;;;;;;;;5095959;28;20091;-70
2023/01/15 00:27:44;;;;;;;0.05;0.05;;;;;;;;;;5096814;28;20022;-72
2023/01/15 00:30:11;;;;;;;0.05;0.05;;;;;;;;;;5096606;28;20024;-70
2023/01/15 00:32:38;;;;;;;0.38;0.17;;;;;;;;;;5095389;28;20480;-75
2023/01/15 00:35:04;;;;;;;0.10;0.10;;;;;;;;;;5095118;28;20070;-74
2023/01/15 00:37:29;;;;;;;0.55;0.55;;;;;;;;;;5096483;28;20024;-66
2023/01/15 00:39:55;;;;;;;0.00;0.00;;;;;;;;;;5095802;28;20012;-72
2023/01/15 00:42:20;;;;;;;0.68;0.68;;;;;;;;;;5094774;28;20063;-75
2023/01/15 00:44:45;;;;;;;0.08;0.08;;;;;;;;;;5096453;28;20020;-73
2023/01/15 00:47:13;;;;;;;0.00;0.00;;;;;;;;;;5096476;28;20012;-72
2023/01/15 00:49:42;;;;;;;1.17;0.32;;;;;;;;;;5093958;28;20061;-69
2023/01/15 00:52:08;;;;;;;0.10;0.10;;;;;;;;;;5094835;28;20031;-69
2023/01/15 00:54:33;;;;;;;0.90;0.65;;;;;;;;;;5095881;28;20016;-68
2023/01/15 00:56:59;;;;;;;0.00;0.00;;;;;;;;;;5094794;28;20488;-64
2023/01/15 00:59:24;;;;;;;0.00;0.00;;;;;;;;;;5095782;28;20027;-64
2023/01/15 01:01:50;;;;;;;0.52;0.20;;;;;;;;;;5095692;28;20054;-68
2023/01/15 01:04:15;;;;;;;0.98;0.20;;;;;;;;;;5094665;28;20056;-65
2023/01/15 01:06:41;;;;;;;1.23;0.43;;;;;;;;;;5095458;28;20099;-68
2023/01/15 01:09:06;;;;;;;0.28;0.28;;;;;;;;;;5095418;28;20102;-63
2023/01/15 01:11:32;;;;;;;0.38;0.22;;;;;;;;;;5094587;28;20421;-62
2023/01/15 01:13:59;;;;;;;15.10;0.45;;;;;;;;;;5094665;28;20020;-62
2023/01/15 01:16:30;;;;;;;0.00;0.00;;;;;;;;;;5094306;28;20021;-58
2023/01/15 01:18:57;;;;;;;0.22;0.22;;;;;;;;;;5094219;28;20043;-57
2023/01/15 01:21:23;;;;;;;0.40;0.40;;;;;;;;;;5094283;28;20040;-57
2023/01/15 01:23:49;;;;;;;0.00;0.00;;;;;;;;;;5095450;28;20032;-58
2023/01/15 01:26:14;;;;;;;0.00;0.00;;;;;;;;;;5097445;28;20031;-58
2023/01/15 01:28:40;;;;;;;0.10;0.10;;;;;;;;;;5094568;28;20464;-58
2023/01/15 01:31:06;;;;;;;0.00;0.00;;;;;;;;;;5092492;28;20016;-58
2023/01/15 01:33:31;;;;;;;0.00;0.00;;;;;;;;;;5092501;28;20089;-57
2023/01/15 01:35:56;;;;;;;0.00;0.00;;;;;;;;;;5093471;28;20436;-58
2023/01/15 01:38:22;;;;;;;0.05;0.05;;;;;;;;;;5093776;28;20028;-58
2023/01/15 01:40:47;;;;;;;0.38;0.38;;;;;;;;;;5092843;28;20476;-57
2023/01/15 01:43:21;;;;;;;0.00;0.00;;;;;;;;;;5092110;28;20032;-57
2023/01/15 01:45:47;;;;;;;0.00;0.00;;;;;;;;;;5092059;28;20016;-57
2023/01/15 01:48:13;;;;;;;0.00;0.00;;;;;;;;;;5093788;28;20023;-59
2023/01/15 01:50:39;;;;;;;0.00;0.00;;;;;;;;;;5093697;28;20027;-56
2023/01/15 01:53:07;;;;;;;8.88;2.05;;;;;;;;;;5092768;28;20020;-59
2023/01/15 01:55:33;;;;;;;0.00;0.00;;;;;;;;;;5093318;28;20028;-56
2023/01/15 01:58:02;;;;;;;0.10;0.10;;;;;;;;;;5093448;28;20535;-57
2023/01/15 02:00:28;;;;;;;0.10;0.10;;;;;;;;;;5093065;28;20077;-57
2023/01/15 02:02:54;;;;;;;29.52;3.80;;;;;;;;;;5091910;28;20439;-57
2023/01/15 02:05:27;;;;;;;8.80;3.80;;;;;;;;;;5093295;28;20023;-56
2023/01/15 02:07:53;;;;;;;8.50;3.80;;;;;;;;;;5093275;28;20098;-56
2023/01/15 02:10:18;;;;;;;15.40;6.00;;;;;;;;;;5093168;28;20035;-56
2023/01/15 02:12:49;;;;;;;10.63;2.53;;;;;;;;;;5093517;28;20020;-56
2023/01/15 02:15:17;;;;;;;9.77;2.22;;;;;;;;;;5093282;28;20537;-57
2023/01/15 02:17:50;;;;;;;10.23;4.35;;;;;;;;;;5093391;28;20028;-56
2023/01/15 02:20:20;;;;;;;11.60;5.10;;;;;;;;;;5091746;28;20481;-57
2023/01/15 02:23:10;;;;;;;0.22;0.22;;;;;;;;;;5093425;28;20525;-55
2023/01/15 02:25:57;;;;;;;1.00;0.60;;;;;;;;;;5093771;28;20016;-56
2023/01/15 02:28:32;;;;;;;0.35;0.28;;;;;;;;;;5093608;28;20023;-62
2023/01/15 02:31:05;;;;;;;1.27;1.17;;;;;;;;;;5093568;28;20031;-57
2023/01/15 02:33:42;;;;;;;0.10;0.10;;;;;;;;;;5093385;28;20025;-57
2023/01/15 02:36:11;;;;;;;0.00;0.00;;;;;;;;;;5092683;28;20541;-57
2023/01/15 02:38:43;;;;;;;1.40;0.50;;;;;;;;;;5093503;28;20415;-56
2023/01/15 02:41:15;;;;;;;8.70;2.42;;;;;;;;;;5093464;28;20027;-63
2023/01/15 02:43:42;;;;;;;6.65;2.70;;;;;;;;;;5095107;28;20039;-60
2023/01/15 02:46:07;;;;;;;11.00;3.95;;;;;;;;;;5093463;28;20093;-54
2023/01/15 02:48:35;;;;;;;8.32;2.90;;;;;;;;;;5092828;28;20020;-59
2023/01/15 02:51:03;;;;;;;6.32;2.53;;;;;;;;;;5092304;28;20020;-55
2023/01/15 02:53:29;;;;;;;5.35;2.72;;;;;;;;;;5097581;28;20020;-55
2023/01/15 02:55:57;;;;;;;6.18;2.30;;;;;;;;;;5096320;28;20021;-57
2023/01/15 02:58:25;;;;;;;1.98;0.50;;;;;;;;;;5097392;28;20063;-57
2023/01/15 03:00:52;;;;;;;4.53;1.00;;;;;;;;;;5095409;28;20024;-57
2023/01/15 03:03:23;;;;;;;23.08;2.90;;;;;;;;;;5097377;28;20035;-56
2023/01/15 03:05:52;;;;;;;7.45;2.38;;;;;;;;;;5095933;28;20458;-55
2023/01/15 03:08:17;;;;;;;6.78;1.77;;;;;;;;;;5097052;28;20481;-61
2023/01/15 03:11:04;;;;;;;5.82;2.10;;;;;;;;;;5096776;28;20068;-59
2023/01/15 03:14:05;;;;;;;7.38;1.92;;;;;;;;;;5096652;28;20017;-55
2023/01/15 03:16:38;;;;;;;8.13;2.80;;;;;;;;;;5034036;28;20025;-55
2023/01/15 03:19:07;;;;;;;6.82;2.13;;;;;;;;;;5086882;28;20389;-55
2023/01/15 03:21:40;;;;;;;5.88;1.95;;;;;;;;;;5096594;28;20035;-55
2023/01/15 03:24:09;;;;;;;7.05;1.67;;;;;;;;;;5096632;28;20400;-59
2023/01/15 03:26:34;;;;;;;4.15;2.40;;;;;;;;;;5097083;28;20031;-55
2023/01/15 03:29:01;;;;;;;9.65;2.53;;;;;;;;;;5096882;28;20013;-55
2023/01/15 03:31:27;;;;;;;3.17;1.83;;;;;;;;;;5096519;28;20016;-55
2023/01/15 03:33:53;;;;;;;6.28;2.70;;;;;;;;;;5096381;28;20016;-55
2023/01/15 03:36:18;;;;;;;6.15;0.90;;;;;;;;;;5096555;28;20024;-54
2023/01/15 03:38:46;;;;;;;3.58;1.38;;;;;;;;;;5096648;28;20047;-55
2023/01/15 03:41:20;;;;;;;5.70;2.40;;;;;;;;;;5096648;28;20016;-56
2023/01/15 03:44:04;;;;;;;0.00;0.00;;;;;;;;;;5096468;28;20031;-56
2023/01/15 03:46:38;;;;;;;0.73;0.55;;;;;;;;;;5096580;28;20063;-57
2023/01/15 03:49:09;;;;;;;0.00;0.00;;;;;;;;;;5096337;28;20054;-57
2023/01/15 03:51:38;;;;;;;0.00;0.00;;;;;;;;;;5096200;28;20031;-57
2023/01/15 03:54:07;;;;;;;0.00;0.00;;;;;;;;;;5094489;28;20022;-57
2023/01/15 03:56:54;;;;;;;0.05;0.05;;;;;;;;;;5094637;28;20024;-57
2023/01/15 03:59:33;;;;;;;0.35;0.20;;;;;;;;;;5096639;28;20026;-57
2023/01/15 04:02:01;;;;;;;0.10;0.10;;;;;;;;;;5098424;28;20063;-57
2023/01/15 04:04:27;;;;;;;0.10;0.10;;;;;;;;;;5096502;28;20032;-57
2023/01/15 04:06:53;;;;;;;0.38;0.38;;;;;;;;;;5096551;28;20419;-57
2023/01/15 04:09:19;;;;;;;0.20;0.20;;;;;;;;;;5095565;28;20534;-57
2023/01/15 04:11:45;;;;;;;0.00;0.00;;;;;;;;;;5096988;28;20016;-61
2023/01/15 04:14:12;;;;;;;3.40;0.52;;;;;;;;;;5096784;28;20507;-58
2023/01/15 04:16:38;;;;;;;0.00;0.00;;;;;;;;;;5097610;28;20035;-66
2023/01/15 04:19:03;;;;;;;0.00;0.00;;;;;;;;;;5097016;28;20016;-56
2023/01/15 04:21:29;;;;;;;0.00;0.00;;;;;;;;;;5096424;28;20392;-57
2023/01/15 04:23:55;;;;;;;0.00;0.00;;;;;;;;;;5096077;28;20028;-57
2023/01/15 04:26:20;;;;;;;0.00;0.00;;;;;;;;;;5096483;28;20468;-56
2023/01/15 04:28:46;;;;;;;1.13;0.50;;;;;;;;;;5096846;28;20385;-56
2023/01/15 04:31:12;;;;;;;3.13;1.42;;;;;;;;;;5095771;28;20012;-55
2023/01/15 04:33:38;;;;;;;0.00;0.00;;;;;;;;;;5095916;28;20020;-52
2023/01/15 04:36:04;;;;;;;1.65;1.13;;;;;;;;;;5095814;28;20016;-53
2023/01/15 04:38:29;;;;;;;1.02;0.28;;;;;;;;;;5095933;28;20032;-53
2023/01/15 04:46:26;;;;;;;7.30;1.52;;;;;;;;;;5095702;28;20071;-57
2023/01/15 04:48:52;;;;;;;5.15;1.83;;;;;;;;;;5093846;28;20464;-50
2023/01/15 04:51:18;;;;;;;5.07;1.17;;;;;;;;;;5095052;28;20013;-51
2023/01/15 04:53:43;;;;;;;3.75;0.40;;;;;;;;;;5095041;28;20012;-51
2023/01/15 04:56:08;;;;;;;3.72;1.05;;;;;;;;;;5094782;28;20016;-52
2023/01/15 04:58:34;;;;;;;4.43;1.50;;;;;;;;;;5095237;28;20062;-51
2023/01/15 05:00:59;;;;;;;2.03;1.02;;;;;;;;;;5094345;28;20009;-52
2023/01/15 05:03:25;;;;;;;2.80;1.02;;;;;;;;;;5093412;28;20488;-51
2023/01/15 05:05:51;;;;;;;3.97;1.00;;;;;;;;;;5094381;28;20043;-52
2023/01/15 05:08:17;;;;;;;3.13;1.02;;;;;;;;;;5094767;28;20050;-53
2023/01/15 05:10:43;;;;;;;0.00;0.00;;;;;;;;;;5094253;28;20384;-52
2023/01/15 05:13:08;;;;;;;0.00;0.00;;;;;;;;;;5094079;28;20014;-52
2023/01/15 05:15:34;;;;;;;0.00;0.00;;;;;;;;;;5092780;28;20024;-53
2023/01/15 05:17:59;;;;;;;5.28;0.85;;;;;;;;;;5093064;28;20024;-53
2023/01/15 05:20:25;;;;;;;5.45;1.63;;;;;;;;;;5094207;28;20016;-53
2023/01/15 05:22:50;;;;;;;4.15;1.45;;;;;;;;;;5094195;28;20023;-61
2023/01/15 05:25:15;;;;;;;4.97;1.60;;;;;;;;;;5092852;28;20103;-53
2023/01/15 05:27:41;;;;;;;9.23;1.73;;;;;;;;;;5093360;28;20080;-54
2023/01/15 05:30:07;;;;;;;4.47;1.30;;;;;;;;;;5094028;28;20456;-54
2023/01/15 05:32:32;;;;;;;3.83;1.25;;;;;;;;;;5093698;28;20050;-54
2023/01/15 05:34:58;;;;;;;3.38;1.52;;;;;;;;;;5093942;28;20023;-54
2023/01/15 05:37:23;;;;;;;3.53;0.70;;;;;;;;;;5093615;28;20023;-54
2023/01/15 05:39:49;;;;;;;3.08;1.10;;;;;;;;;;5094007;28;20468;-54
2023/01/15 05:42:14;;;;;;;4.57;1.02;;;;;;;;;;5093759;28;20451;-55
2023/01/15 05:44:39;;;;;;;5.22;1.50;;;;;;;;;;5094018;28;20106;-55
2023/01/15 05:47:06;;;;;;;4.68;0.95;;;;;;;;;;5093719;28;20024;-56
2023/01/15 05:49:32;;;;;;;4.53;1.30;;;;;;;;;;5093293;28;20470;-54
2023/01/15 05:51:59;;;;;;;5.68;1.00;;;;;;;;;;5092086;28;20073;-58
2023/01/15 05:54:26;;;;;;;6.25;0.82;;;;;;;;;;5093297;28;20104;-54
2023/01/15 05:56:52;;;;;;;5.18;1.30;;;;;;;;;;5093344;28;20024;-54
2023/01/15 05:59:18;;;;;;;0.00;0.00;;;;;;;;;;5092205;28;20629;-55
2023/01/15 06:01:43;;;;;;;0.38;0.30;;;;;;;;;;5094961;28;20044;-54
2023/01/15 06:04:10;;;;;;;0.00;0.00;;;;;;;;;;5094325;28;20434;-54
2023/01/15 06:06:35;;;;;;;4.57;1.60;;;;;;;;;;5094718;28;20028;-54
2023/01/15 06:09:02;;;;;;;2.47;0.90;;;;;;;;;;5093786;28;20012;-54
2023/01/15 06:11:27;;;;;;;24.80;1.67;;;;;;;;;;5093370;28;20070;-55
2023/01/15 06:13:53;;;;;;;1.98;0.90;;;;;;;;;;5093156;28;20020;-61
2023/01/15 06:16:18;;;;;;;2.63;1.10;;;;;;;;;;5093632;28;20028;-54
2023/01/15 06:18:44;;;;;;;3.53;0.60;;;;;;;;;;5095229;28;20016;-55
2023/01/15 06:21:10;;;;;;;3.15;1.05;;;;;;;;;;5094887;28;20022;-57
2023/01/15 06:23:36;;;;;;;2.60;1.30;;;;;;;;;;5095347;28;20477;-55
2023/01/15 06:26:03;;;;;;;3.28;0.90;;;;;;;;;;5094009;28;20025;-55
2023/01/15 06:28:28;;;;;;;2.35;0.70;;;;;;;;;;5093742;28;20024;-56
2023/01/15 06:30:54;;;;;;;0.00;0.00;;;;;;;;;;5093089;28;20127;-57
2023/01/15 06:33:19;;;;;;;0.00;0.00;;;;;;;;;;5092966;28;20516;-55
2023/01/15 06:35:45;;;;;;;4.25;0.93;;;;;;;;;;5092226;28;20024;-55
2023/01/15 06:38:10;;;;;;;0.00;0.00;;;;;;;;;;5093446;28;20097;-56
2023/01/15 06:40:35;;;;;;;0.00;0.00;;;;;;;;;;5093286;28;20043;-56
2023/01/15 06:48:29;;;;;;;1.45;0.32;;;;;;;;;;5092708;28;20449;-59
2023/01/15 06:50:54;;;;;;;2.78;0.80;;;;;;;;;;5092642;28;20091;-57
2023/01/15 06:53:20;;;;;;;4.00;0.70;;;;;;;;;;5091682;28;20065;-58
2023/01/15 06:55:46;;;;;;;4.47;0.85;;;;;;;;;;5092830;28;20068;-56
2023/01/15 06:58:11;;;;;;;3.10;1.00;;;;;;;;;;5091739;28;20069;-57
2023/01/15 07:00:36;;;;;;;1.92;0.60;;;;;;;;;;5092933;28;20013;-63
2023/01/15 07:03:02;;;;;;;5.25;1.27;;;;;;;;;;5093327;28;20450;-56
2023/01/15 07:05:29;;;;;;;3.15;0.43;;;;;;;;;;5093476;28;20026;-60
2023/01/15 07:07:56;;;;;;;10.18;0.95;;;;;;;;;;5093541;28;20042;-56
2023/01/15 07:10:21;;;;;;;2.05;0.65;;;;;;;;;;5094670;28;20499;-57
2023/01/15 07:12:47;;;;;;;4.30;0.82;;;;;;;;;;5094558;28;20020;-57
2023/01/15 07:15:12;;;;;;;2.70;0.85;;;;;;;;;;5092085;28;20048;-59
2023/01/15 07:17:37;;;;;;;5.72;1.05;;;;;;;;;;5093143;28;20488;-57
2023/01/15 07:20:04;;;;;;;10.07;0.60;;;;;;;;;;5093155;28;20016;-57
2023/01/15 07:22:29;;;;;;;9.45;0.82;;;;;;;;;;5093271;28;20058;-57
2023/01/15 07:24:55;;;;;;;4.93;0.50;;;;;;;;;;5093374;28;20036;-57
2023/01/15 07:27:20;;;;;;;11.82;0.98;;;;;;;;;;5092816;28;20053;-58
2023/01/15 07:29:47;;;;;;;6.55;1.85;;;;;;;;;;5091655;28;20024;-57
2023/01/15 07:32:12;;;;;;;6.32;0.95;;;;;;;;;;5093156;28;20024;-64
2023/01/15 07:34:37;;;;;;;4.63;0.45;;;;;;;;;;5093057;28;20043;-57
2023/01/15 07:37:03;;;;;;;3.33;0.40;;;;;;;;;;5091246;28;20020;-57
2023/01/15 07:39:30;;;;;;;3.53;0.77;;;;;;;;;;5094319;28;20081;-57
2023/01/15 07:50:11;;;;;;;11.95;1.20;;;;;;;;;;5096785;28;20035;-57
2023/01/15 07:52:36;;;;;;;7.00;1.80;;;;;;;;;;5097117;28;20073;-57
2023/01/15 07:55:02;;;;;;;6.57;0.80;;;;;;;;;;5095159;28;20020;-59
2023/01/15 07:57:28;;;;;;;3.95;0.55;;;;;;;;;;5096724;28;20051;-57
2023/01/15 07:59:53;;;;;;;8.73;1.02;;;;;;;;;;5095157;28;20024;-58
2023/01/15 08:02:19;;;;;;;7.13;1.20;;;;;;;;;;5094737;28;20048;-57
2023/01/15 08:04:46;;;;;;;4.38;0.60;;;;;;;;;;5096627;28;20024;-57
2023/01/15 08:07:12;;;;;;;8.48;1.17;;;;;;;;;;5096084;28;20020;-57
2023/01/15 08:09:38;;;;;;;8.05;0.80;;;;;;;;;;5096074;28;20020;-57
2023/01/15 08:17:38;;;;;;;9.00;1.52;;;;;;;;;;5096183;28;20054;-58
2023/01/15 08:20:09;;;;;;;9.70;1.20;;;;;;;;;;5096267;28;20430;-66
2023/01/15 08:22:34;;;;;;;7.88;1.08;;;;;;;;;;5095982;28;20016;-57
2023/01/15 08:25:00;;;;;;;12.85;1.65;;;;;;;;;;5094770;28;20088;-57
2023/01/15 08:27:27;;;;;;;5.70;1.42;;;;;;;;;;5095997;28;20013;-58
2023/01/15 08:29:53;;;;;;;8.77;1.10;;;;;;;;;;5094408;28;20061;-58
2023/01/15 08:32:18;;;;;;;5.90;1.23;;;;;;;;;;5095690;28;20464;-57
2023/01/15 08:34:44;;;;;;;9.18;1.58;;;;;;;;;;5094712;28;20553;-59
2023/01/15 08:37:09;;;;;;;5.50;1.42;;;;;;;;;;5095761;28;20134;-59
2023/01/15 08:39:36;;;;;;;4.63;0.90;;;;;;;;;;5094318;28;20024;-58
2023/01/15 08:42:01;;;;;;;9.75;1.20;;;;;;;;;;5095930;28;20009;-57
2023/01/15 08:44:26;;;;;;;8.25;1.13;;;;;;;;;;5094038;28;20472;-58
2023/01/15 08:46:52;;;;;;;13.55;1.48;;;;;;;;;;5095358;28;20093;-59
2023/01/15 08:49:18;;;;;;;10.13;1.50;;;;;;;;;;5094682;28;20474;-58
2023/01/15 08:51:44;;;;;;;13.60;1.42;;;;;;;;;;5093952;28;20106;-59
2023/01/15 08:54:10;;;;;;;5.10;0.82;;;;;;;;;;5094719;28;20099;-58
2023/01/15 08:56:35;;;;;;;11.85;1.42;;;;;;;;;;5094124;28;20082;-58
2023/01/15 08:59:07;;;;;;;13.35;1.42;;;;;;;;;;5093360;28;20429;-57
2023/01/15 09:01:33;;;;;;;7.88;0.90;;;;;;;;;;5093201;28;20052;-59
2023/01/15 09:03:58;;;;;;;8.98;1.05;;;;;;;;;;5094671;28;20032;-59
2023/01/15 09:06:24;;;;;;;7.82;1.63;;;;;;;;;;5095209;28;20024;-64
2023/01/15 09:08:49;;;;;;;9.73;1.23;;;;;;;;;;5093561;28;20369;-58
2023/01/15 09:11:15;;;;;;;7.20;0.82;;;;;;;;;;5094642;28;20016;-60
2023/01/15 09:13:40;;;;;;;7.70;0.95;;;;;;;;;;5093499;28;20024;-60
2023/01/15 09:16:06;;;;;;;8.48;1.70;;;;;;;;;;5095850;28;20457;-58
2023/01/15 09:18:32;;;;;;;6.80;1.27;;;;;;;;;;5093557;28;20012;-58
2023/01/15 09:20:58;;;;;;;11.15;1.27;;;;;;;;;;5094349;28;20016;-59
2023/01/15 09:23:24;;;;;;;9.25;1.13;;;;;;;;;;5094406;28;20078;-66
2023/01/15 09:25:53;;;;;;;9.50;1.27;;;;;;;;;;5094789;28;20099;-58
2023/01/15 09:28:18;;;;;;;8.13;0.80;;;;;;;;;;5093490;28;20374;-58
2023/01/15 09:30:44;;;;;;;4.30;0.75;;;;;;;;;;5093577;28;20030;-59
2023/01/15 09:33:10;;;;;;;7.43;1.38;;;;;;;;;;5093215;28;20016;-61
2023/01/15 09:35:35;;;;;;;11.23;1.83;;;;;;;;;;5092707;28;20016;-61
2023/01/15 09:38:01;;;;;;;15.63;2.22;;;;;;;;;;5093975;28;20016;-59
2023/01/15 09:40:45;;;;;;;12.45;1.17;;;;;;;;;;5094249;28;20453;-58
2023/01/15 09:43:29;;;;;;;6.50;1.08;;;;;;;;;;5092962;28;20062;-58
2023/01/15 09:46:07;;;;;;;12.20;2.55;;;;;;;;;;5094009;28;20530;-58
2023/01/15 09:48:51;;;;;;;11.35;1.85;;;;;;;;;;5094155;28;20028;-60
2023/01/15 09:51:18;;;;;;;14.10;1.40;;;;;;;;;;5092566;28;20020;-58
2023/01/15 09:53:46;;;;;;;7.70;0.98;;;;;;;;;;5094052;28;20385;-61
2023/01/15 09:56:20;;;;;;;10.25;1.80;;;;;;;;;;5094233;28;20380;-59
2023/01/15 09:58:45;;;;;;;11.93;2.15;;;;;;;;;;5094758;28;20380;-58
2023/01/15 10:01:17;;;;;;;13.70;1.73;;;;;;;;;;5093033;28;20047;-58
2023/01/15 10:03:46;;;;;;;16.70;1.63;;;;;;;;;;5092812;28;20534;-60
2023/01/15 10:06:18;;;;;;;9.73;1.45;;;;;;;;;;5092786;28;20016;-59
2023/01/15 10:08:45;;;;;;;17.88;2.50;;;;;;;;;;5092618;28;20486;-59
2023/01/15 10:11:13;;;;;;;11.23;1.40;;;;;;;;;;5093551;28;20012;-59
2023/01/15 10:13:46;;;;;;;13.02;2.47;;;;;;;;;;5093633;28;20480;-59
2023/01/15 10:16:17;;;;;;;7.80;1.88;;;;;;;;;;5091615;28;20103;-64
2023/01/15 10:18:42;;;;;;;13.15;2.00;;;;;;;;;;5093586;28;20085;-58
2023/01/15 10:21:19;;;;;;;9.45;1.70;;;;;;;;;;5092828;28;20476;-58
2023/01/15 10:23:49;;;;;;;7.25;1.13;;;;;;;;;;5092006;28;20032;-59
2023/01/15 10:26:15;;;;;;;12.93;1.83;;;;;;;;;;5093538;28;20016;-58
2023/01/15 10:28:56;;;;;;;14.77;1.95;;;;;;;;;;5091931;28;20038;-57
2023/01/15 10:31:24;;;;;;;10.45;1.20;;;;;;;;;;5093894;28;20468;-61
2023/01/15 10:34:04;;;;;;;17.30;2.55;;;;;;;;;;5094834;28;20528;-59
2023/01/15 10:36:34;;;;;;;14.50;1.95;;;;;;;;;;5093486;28;20074;-59
2023/01/15 10:39:19;;;;;;;10.27;1.40;;;;;;;;;;5092619;28;20024;-58
2023/01/15 10:41:56;;;;;;;11.13;2.03;;;;;;;;;;5091631;28;20388;-57
2023/01/15 10:44:35;;;;;;;10.95;1.27;;;;;;;;;;5093007;28;20078;-57
2023/01/15 10:47:01;;;;;;;14.00;1.92;;;;;;;;;;5094542;28;20023;-58
2023/01/15 10:49:28;;;;;;;13.23;2.22;;;;;;;;;;5093424;28;20032;-57
2023/01/15 10:52:01;;;;;;;10.93;1.77;;;;;;;;;;5092920;28;20024;-58
2023/01/15 10:54:27;;;;;;;11.50;2.10;;;;;;;;;;5091451;28;20039;-59
2023/01/15 10:57:00;;;;;;;13.13;1.85;;;;;;;;;;5091073;28;20054;-57
2023/01/15 10:59:35;;;;;;;12.63;1.67;;;;;;;;;;5092274;28;20008;-57
2023/01/15 11:02:02;;;;;;;13.55;1.80;;;;;;;;;;5090713;28;20385;-57
2023/01/15 11:04:30;;;;;;;15.30;3.38;;;;;;;;;;5092109;28;20040;-58
2023/01/15 11:06:55;;;;;;;14.00;2.35;;;;;;;;;;5092104;28;20024;-57
2023/01/15 11:09:23;;;;;;;10.57;1.98;;;;;;;;;;5092266;28;20016;-58
2023/01/15 11:20:11;;;;;;;11.93;2.05;;;;;;;;;;5096109;28;20050;-57
2023/01/15 11:22:37;;;;;;;12.90;1.58;;;;;;;;;;5094418;28;20077;-57
2023/01/15 11:25:03;;;;;;;14.55;1.95;;;;;;;;;;5095140;28;20032;-58
2023/01/15 11:27:32;;;;;;;15.23;2.40;;;;;;;;;;5095994;28;20024;-58
2023/01/15 11:29:58;;;;;;;9.23;2.03;;;;;;;;;;5095741;28;20481;-58
2023/01/15 11:32:28;;;;;;;10.82;1.50;;;;;;;;;;5095530;28;20012;-58
2023/01/15 11:34:55;;;;;;;14.98;1.90;;;;;;;;;;5095433;28;20409;-58
2023/01/15 11:37:21;;;;;;;12.43;1.85;;;;;;;;;;5094301;28;20380;-58
2023/01/15 11:39:53;;;;;;;14.00;2.35;;;;;;;;;;5096060;28;20026;-57
2023/01/15 11:50:55;;;;;;;13.85;2.45;;;;;;;;;;5095494;28;20019;-58
2023/01/15 11:53:25;;;;;;;9.15;2.25;;;;;;;;;;5093763;28;20074;-59
2023/01/15 11:55:59;;;;;;;9.25;1.65;;;;;;;;;;5093589;28;20031;-58
2023/01/15 11:58:25;;;;;;;12.02;2.03;;;;;;;;;;5094965;28;20046;-60
2023/01/15 12:00:54;;;;;;;7.82;0.95;;;;;;;;;;5095733;28;20016;-58
2023/01/15 12:03:21;;;;;;;8.90;1.73;;;;;;;;;;5095733;28;20189;-58
2023/01/15 12:05:52;;;;;;;12.85;2.00;;;;;;;;;;5095978;28;20016;-58
2023/01/15 12:08:21;;;;;;;6.38;1.42;;;;;;;;;;5096656;28;20064;-59
2023/01/15 12:11:03;;;;;;;16.38;1.90;;;;;;;;;;5094774;28;20016;-59
2023/01/15 12:13:44;;;;;;;9.77;1.90;;;;;;;;;;5094809;28;20055;-60
2023/01/15 12:16:27;;;;;;;12.57;2.10;;;;;;;;;;5095110;28;20481;-59
2023/01/15 12:18:59;;;;;;;10.48;1.65;;;;;;;;;;5095307;28;20020;-60
2023/01/15 12:21:43;;;;;;;15.43;2.03;;;;;;;;;;5093143;28;20020;-58
2023/01/15 12:24:09;;;;;;;7.50;1.50;;;;;;;;;;5092722;28;20468;-60
2023/01/15 12:27:00;;;;;;;5.90;1.20;;;;;;;;;;5093251;28;20023;-58
2023/01/15 12:29:28;;;;;;;11.82;2.15;;;;;;;;;;5094430;28;20024;-60
2023/01/15 12:32:00;;;;;;;15.23;2.33;;;;;;;;;;5094397;28;20020;-58
2023/01/15 12:34:35;;;;;;;17.08;1.98;;;;;;;;;;5094335;28;20061;-59
2023/01/15 12:37:08;;;;;;;13.95;1.77;;;;;;;;;;5094339;28;20103;-58
2023/01/15 12:39:39;;;;;;;14.35;2.05;;;;;;;;;;5094115;28;20473;-60
2023/01/15 12:45:00;;;;;;;11.15;1.80;;;;;;;;;;5093610;28;20495;-60
2023/01/15 12:47:31;;;;;;;14.75;3.13;;;;;;;;;;5094210;28;20052;-59
2023/01/15 12:50:00;;;;;;;19.83;3.65;;;;;;;;;;5093928;28;20064;-59
2023/01/15 12:52:33;;;;;;;9.10;1.30;;;;;;;;;;5094208;28;20028;-60
2023/01/15 12:55:04;;;;;;;15.32;1.98;;;;;;;;;;5092678;28;20503;-60
2023/01/15 12:57:33;;;;;;;10.23;1.80;;;;;;;;;;5094415;28;20016;-60
2023/01/15 13:00:07;;;;;;;11.55;2.28;;;;;;;;;;5094371;28;20023;-64
2023/01/15 13:02:39;;;;;;;12.20;2.08;;;;;;;;;;5094216;28;20050;-64
2023/01/15 13:05:18;;;;;;;11.35;1.50;;;;;;;;;;5093950;28;20081;-63
2023/01/15 13:08:02;;;;;;;10.73;2.17;;;;;;;;;;5094375;28;20024;-63
2023/01/15 13:10:35;;;;;;;13.13;2.13;;;;;;;;;;5093183;28;20118;-62
2023/01/15 13:13:21;;;;;;;16.67;2.55;;;;;;;;;;5092173;28;20020;-62
2023/01/15 13:15:56;;;;;;;8.93;2.08;;;;;;;;;;5092763;28;20051;-61
2023/01/15 13:18:28;;;;;;;6.28;0.75;;;;;;;;;;5093284;28;20027;-65
2023/01/15 13:20:54;;;;;;;12.57;1.20;;;;;;;;;;5094406;28;20020;-66
2023/01/15 13:23:22;;;;;;;11.70;1.20;;;;;;;;;;5093978;28;20013;-63
2023/01/15 13:26:13;;;;;;;15.98;1.80;;;;;;;;;;5093457;28;20043;-66
2023/01/15 13:28:57;;;;;;;8.25;1.40;;;;;;;;;;5094729;28;20024;-61
2023/01/15 13:31:39;;;;;;;10.60;2.08;;;;;;;;;;5093615;28;20154;-62
2023/01/15 13:34:30;;;;;;;6.10;0.93;;;;;;;;;;5092722;28;20106;-62
2023/01/15 13:37:03;;;;;;;7.78;1.50;;;;;;;;;;5061468;28;20107;-61
2023/01/15 13:39:36;;;;;;;7.63;1.38;;;;;;;;;;5094349;28;20028;-60
2023/01/15 13:44:47;;;;;;;4.78;1.45;;;;;;;;;;5093751;28;20400;-63
2023/01/15 13:47:18;;;;;;;9.93;1.95;;;;;;;;;;5093108;28;20103;-62
2023/01/15 13:49:47;;;;;;;10.93;1.80;;;;;;;;;;5093553;28;20024;-61
2023/01/15 13:52:26;;;;;;;4.13;1.65;;;;;;;;;;5093308;28;20080;-61
2023/01/15 13:54:52;;;;;;;9.57;1.92;;;;;;;;;;5091105;28;20020;-60
2023/01/15 13:57:22;;;;;;;8.45;1.70;;;;;;;;;;5092613;28;20043;-61
2023/01/15 13:59:49;;;;;;;6.47;1.30;;;;;;;;;;5093268;28;20477;-60
2023/01/15 14:02:28;;;;;;;14.20;1.80;;;;;;;;;;5093091;28;20035;-67
2023/01/15 14:04:54;;;;;;;12.25;2.88;;;;;;;;;;5092772;28;20028;-62
2023/01/15 14:07:30;;;;;;;11.35;1.92;;;;;;;;;;5092724;28;20075;-63
2023/01/15 14:10:06;;;;;;;14.00;1.40;;;;;;;;;;5093362;28;20101;-62
2023/01/15 14:12:55;;;;;;;15.70;2.90;;;;;;;;;;5091105;28;20109;-63
2023/01/15 14:15:35;;;;;;;6.45;1.15;;;;;;;;;;5063277;28;20036;-62
2023/01/15 14:18:07;;;;;;;11.75;1.33;;;;;;;;;;5092959;28;20028;-63
2023/01/15 14:20:34;;;;;;;9.90;2.03;;;;;;;;;;5091332;28;20024;-65
2023/01/15 14:23:24;;;;;;;11.23;1.30;;;;;;;;;;5092275;28;20086;-63
2023/01/15 14:26:08;;;;;;;10.07;1.67;;;;;;;;;;5092609;28;20039;-63
2023/01/15 14:28:41;;;;;;;15.15;2.58;;;;;;;;;;5091315;28;20027;-64
2023/01/15 14:31:15;;;;;;;9.88;1.90;;;;;;;;;;5092558;28;20552;-63
2023/01/15 14:33:59;;;;;;;12.93;1.98;;;;;;;;;;5091372;28;20099;-67
2023/01/15 14:36:26;;;;;;;12.82;2.15;;;;;;;;;;5092521;28;20044;-64
2023/01/15 14:38:58;;;;;;;10.93;2.47;;;;;;;;;;5092305;28;20047;-62
2023/01/15 14:43:00;;;;;;;12.73;2.20;;;;;;;;;;5091125;28;20027;-64
2023/01/15 14:44:28;;;;;;;6.88;1.00;;;;;;;;;;5092225;28;20078;-64
2023/01/15 14:46:58;;;;;;;15.35;2.38;;;;;;;;;;5091294;28;20111;-65
2023/01/15 14:49:28;;;;;;;9.88;1.20;;;;;;;;;;5094917;28;20024;-66
2023/01/15 14:51:53;;;;;;;17.20;2.70;;;;;;;;;;5095789;28;20027;-65
2023/01/15 14:54:19;;;;;;;13.55;1.50;;;;;;;;;;5096766;28;20495;-65
2023/01/15 14:56:49;;;;;;;6.38;2.13;;;;;;;;;;5096342;28;20105;-67
2023/01/15 14:59:14;;;;;;;15.45;3.50;;;;;;;;;;5096451;28;20380;-65
2023/01/15 15:01:43;;;;;;;6.57;1.90;;;;;;;;;;5095857;28;20131;-68
2023/01/15 15:04:14;;;;;;;12.18;2.33;;;;;;;;;;5095086;28;20032;-72
2023/01/15 15:06:48;;;;;;;10.95;1.75;;;;;;;;;;5095105;28;20020;-68
2023/01/15 15:09:18;;;;;;;13.40;3.05;;;;;;;;;;5096231;28;20099;-66
2023/01/15 15:14:35;;;;;;;5.82;1.00;;;;;;;;;;5096024;28;20399;-68
2023/01/15 15:17:03;;;;;;;7.72;1.48;;;;;;;;;;5096705;28;20061;-67
2023/01/15 15:19:32;;;;;;;15.48;1.52;;;;;;;;;;5094540;28;20089;-67
2023/01/15 15:21:59;;;;;;;10.38;1.42;;;;;;;;;;5094955;28;20061;-69
2023/01/15 15:24:33;;;;;;;5.90;1.17;;;;;;;;;;5095832;28;20507;-66
2023/01/15 15:27:15;;;;;;;7.43;1.23;;;;;;;;;;5098403;28;20035;-69
2023/01/15 15:29:40;;;;;;;9.85;1.17;;;;;;;;;;5100620;28;20443;-68
2023/01/15 15:32:09;;;;;;;12.90;1.88;;;;;;;;;;5096000;28;20174;-67
2023/01/15 15:34:38;;;;;;;3.55;1.05;;;;;;;;;;5096899;28;20016;-68
2023/01/15 15:37:11;;;;;;;10.85;2.03;;;;;;;;;;5095652;28;20016;-67
2023/01/15 15:39:41;;;;;;;13.43;1.85;;;;;;;;;;5094705;28;20099;-66
2023/01/15 15:50:39;;;;;;;10.60;1.63;;;;;;;;;;5096468;28;20073;-68